Flight Track Log - Related Links

Times and Time Zones

All times are in EDT time to prevent confusion due to time zone crossing. See the RPA3392 flight status page for this flight to view local times or setup timezone preferences in your user account.


Time Position Orientation Groundspeed Altitude Reporting Facility
EDT Latitude Longitude Course Direction KTS MPH feet Rate Location/Type
Tue 06:01:42 PM 44.9433 -93.2472 117° Southeast 180 207 3,100  Level Minneapolis Center
Tue 06:02:00 PM 44.7615 -92.7824 111° Southeast  Level Estimated
Tue 06:02:45 PM 45.0025 -93.2189 19° North 237 273 5,100  Level Minneapolis Center
Tue 06:03:00 PM 44.7209 -92.6364 113° Southeast  Level Estimated
Tue 06:03:47 PM 45.0325 -93.1361 63° Northeast 264 304 8,100  Level Minneapolis Center
Tue 06:04:00 PM 44.6601 -92.5052 123° Southeast  Level FlightAware Approximate
Tue 06:04:49 PM 44.9775 -93.0269 125° Southeast 282 325 11,300  Level Minneapolis Center
Tue 06:05:00 PM 44.6072 -92.3571 117° Southeast  Level FlightAware Approximate
Tue 06:05:51 PM 44.9283 -92.9311 126° Southeast 298 343 13,700  Level Minneapolis Center
Tue 06:06:00 PM 44.5595 -92.2259 117° Southeast  Level FlightAware Approximate
Tue 06:06:53 PM 44.8808 -92.8203 121° Southeast 331 381 14,900  Level Minneapolis Center
Tue 06:07:55 PM 44.8294 -92.6961 120° Southeast 364 419 16,700 1,790 Climbing Minneapolis Center
Tue 06:08:57 PM 44.7764 -92.5697 121° Southeast 374 430 18,600 1,887 Climbing Minneapolis Center
Tue 06:09:59 PM 44.7228 -92.4425 121° Southeast 377 434 20,600 1,887 Climbing Minneapolis Center
Tue 06:11:01 PM 44.6564 -92.2842 120° Southeast 389 448 22,500 1,645 Climbing Minneapolis Center
Tue 06:12:03 PM 44.5994 -92.1494 121° Southeast 398 458 24,000 1,355 Climbing Minneapolis Center
Tue 06:13:05 PM 44.5414 -92.0111 120° Southeast 408 470 25,300 1,210 Climbing Minneapolis Center
Tue 06:14:07 PM 44.4817 -91.8708 121° Southeast 418 481 26,500 1,161 Climbing Minneapolis Center
Tue 06:15:09 PM 44.4203 -91.7286 121° Southeast 426 490 27,700 1,200 Climbing Minneapolis Center
Tue 06:16:12 PM 44.3608 -91.5878 121° Southeast 424 488 29,000 1,200 Climbing Minneapolis Center
Tue 06:17:14 PM 44.2878 -91.4208 121° Southeast 422 486 30,200 1,065 Climbing Minneapolis Center
Tue 06:19:18 PM 44.1633 -91.1325 121° Southeast 421 484 32,300 1,000 Climbing Minneapolis Center
Tue 06:20:20 PM 44.1025 -90.9928 121° Southeast 423 487 33,300 871 Climbing Minneapolis Center
Tue 06:21:22 PM 44.0425 -90.8572 122° Southeast 417 480 34,100 726 Climbing Minneapolis Center
Tue 06:22:24 PM 43.9833 -90.7236 122° Southeast 410 472 34,800 429 Climbing Minneapolis Center
Tue 06:23:28 PM 43.9225 -90.5881 122° Southeast 415 478 35,000 95 Climbing Chicago Center
Tue 06:24:30 PM 43.8500 -90.4242 121° Southeast 418 481 35,000  Level Chicago Center
Tue 06:25:30 PM 43.7897 -90.2900 122° Southeast 415 478 35,000  Level Minneapolis Center
Tue 06:26:32 PM 43.7278 -90.1539 122° Southeast 418 481 35,000  Level Minneapolis Center
Tue 06:27:34 PM 43.6669 -90.0197 122° Southeast 415 478 35,000  Level Minneapolis Center
Tue 06:28:38 PM 43.5947 -89.8625 122° Southeast 416 479 35,000  Level Chicago Center
Tue 06:29:40 PM 43.5367 -89.7233 120° Southeast 417 480 35,000  Level Chicago Center
Tue 06:30:42 PM 43.4967 -89.5747 110° East 414 476 35,000  Level Chicago Center
Tue 06:31:44 PM 43.4533 -89.4267 112° Southeast 416 479 35,000  Level Chicago Center
Tue 06:32:47 PM 43.4111 -89.2797 112° Southeast 416 479 35,000  Level Chicago Center
Tue 06:33:49 PM 43.3606 -89.1083 112° Southeast 416 479 35,000  Level Chicago Center
Tue 06:34:51 PM 43.3172 -88.9608 112° Southeast 417 480 35,000  Level Chicago Center
Tue 06:35:53 PM 43.2733 -88.8131 112° Southeast 420 483 35,000  Level Chicago Center
Tue 06:36:55 PM 43.2308 -88.6667 112° Southeast 418 481 35,000  Level Chicago Center
Tue 06:37:57 PM 43.1803 -88.4972 112° Southeast 417 480 35,000  Level Chicago Center
Tue 06:38:59 PM 43.1361 -88.3525 113° Southeast 415 478 35,000  Level Chicago Center
Tue 06:40:01 PM 43.1078 -88.2011 104° East 417 480 35,000  Level Chicago Center
Tue 06:41:03 PM 43.0911 -88.0450 98° East 417 480 35,000  Level Chicago Center
Tue 06:42:05 PM 43.0719 -87.8628 98° East 416 479 35,000  Level Chicago Center
Tue 06:43:07 PM 43.0550 -87.7083 98° East 412 474 35,000  Level Chicago Center
Tue 06:44:09 PM 43.0367 -87.5519 99° East 416 479 35,000  Level Chicago Center
Tue 06:45:11 PM 43.0189 -87.3975 99° East 413 475 35,000  Level Chicago Center
Tue 06:46:14 PM 42.9989 -87.2261 99° East 412 474 35,000  Level Chicago Center
Tue 06:47:16 PM 42.9811 -87.0717 99° East 415 478 35,000  Level Chicago Center
Tue 06:48:18 PM 42.9639 -86.9161 99° East 415 478 35,000  Level Chicago Center
Tue 06:49:20 PM 42.9447 -86.7614 100° East 416 479 35,000  Level Chicago Center
Tue 06:50:22 PM 42.9264 -86.6039 99° East 421 484 35,000  Level Chicago Center
Tue 06:51:24 PM 42.9075 -86.4492 99° East 418 481 35,000  Level Chicago Center
Tue 06:52:26 PM 42.8836 -86.2642 100° East 418 481 35,000  Level Chicago Center
Tue 06:53:28 PM 42.8642 -86.1097 100° East 420 483 35,000  Level Chicago Center
Tue 06:54:30 PM 42.8447 -85.9550 100° East 423 487 35,000  Level Chicago Center
Tue 06:55:32 PM 42.8250 -85.7986 100° East 425 489 35,000  Level Chicago Center
Tue 06:56:34 PM 42.8017 -85.6114 100° East 423 487 35,000  Level Chicago Center
Tue 06:57:36 PM 42.7725 -85.4547 104° East 430 495 35,000  Level Chicago Center
Tue 06:58:38 PM 42.7233 -85.3136 115° Southeast 416 479 35,000  Level Chicago Center
Tue 06:59:40 PM 42.6736 -85.1728 116° Southeast 415 478 35,000  Level Chicago Center
Tue 07:00:42 PM 42.6239 -85.0292 115° Southeast 414 476 35,000  Level Chicago Center
Tue 07:01:44 PM 42.5703 -84.8928 118° Southeast 413 475 35,000  Level Chicago Center
Tue 07:02:46 PM 42.4883 -84.7533 129° Southeast 395 455 35,000  Level Chicago Center
Tue 07:03:48 PM 42.4214 -84.6403 129° Southeast 393 452 35,000  Level Chicago Center
Tue 07:04:50 PM 42.3539 -84.5264 129° Southeast 389 448 35,000  Level Chicago Center
Tue 07:05:52 PM 42.2864 -84.4125 129° Southeast 389 448 35,000  Level Chicago Center
Tue 07:06:54 PM 42.2183 -84.2992 129° Southeast 389 448 35,000  Level Chicago Center
Tue 07:07:57 PM 42.1494 -84.1833 129° Southeast 394 453 35,000  Level Chicago Center
Tue 07:08:59 PM 42.0661 -84.0461 129° Southeast 395 455 35,000  Level Chicago Center
Tue 07:10:01 PM 41.9975 -83.9292 128° Southeast 397 457 35,000  Level Chicago Center
Tue 07:11:19 PM 41.9089 -83.7892 130° Southeast 393 452 35,000  Level Cleveland Center
Tue 07:12:19 PM 41.8369 -83.6742 130° Southeast 393 452 35,000  Level Cleveland Center
Tue 07:13:19 PM 41.7711 -83.5650 129° Southeast 388 447 35,000  Level Cleveland Center
Tue 07:14:19 PM 41.7050 -83.4536 128° Southeast 388 447 35,000  Level Cleveland Center
Tue 07:15:19 PM 41.6350 -83.3419 130° Southeast 388 447 35,000  Level Cleveland Center
Tue 07:16:19 PM 41.5667 -83.2308 129° Southeast 383 441 35,000  Level Cleveland Center
Tue 07:17:19 PM 41.4922 -83.1086 129° Southeast 383 441 35,000  Level Cleveland Center
Tue 07:18:19 PM 41.4258 -83.0036 130° Southeast 383 441 35,000  Level Cleveland Center
Tue 07:19:19 PM 41.3572 -82.8931 130° Southeast 383 441 35,000  Level Cleveland Center
Tue 07:20:19 PM 41.2883 -82.7828 130° Southeast 383 441 35,000  Level Cleveland Center
Tue 07:21:19 PM 41.2194 -82.6756 130° Southeast 383 441 35,000  Level Cleveland Center
Tue 07:22:19 PM 41.1506 -82.5631 129° Southeast 382 440 35,000  Level Cleveland Center
Tue 07:23:19 PM 41.0817 -82.4536 130° Southeast 388 447 35,000  Level Cleveland Center
Tue 07:24:19 PM 41.0103 -82.3469 132° Southeast 388 447 35,000  Level Cleveland Center
Tue 07:25:19 PM 40.9411 -82.2378 130° Southeast 383 441 35,000  Level Cleveland Center
Tue 07:26:19 PM 40.8697 -82.1264 130° Southeast 383 441 35,000  Level Cleveland Center
Tue 07:27:19 PM 40.8003 -82.0150 129° Southeast 383 441 35,000  Level Cleveland Center
Tue 07:28:19 PM 40.7306 -81.9092 131° Southeast 383 441 35,000  Level Cleveland Center
Tue 07:29:19 PM 40.6611 -81.7983 130° Southeast 383 441 35,000  Level Cleveland Center
Tue 07:30:19 PM 40.5892 -81.6878 131° Southeast 388 447 35,000  Level Cleveland Center
Tue 07:31:19 PM 40.5256 -81.5911 131° Southeast 388 447 35,000  Level Cleveland Center
Tue 07:32:19 PM 40.4533 -81.4808 131° Southeast 388 447 35,000  Level Cleveland Center
Tue 07:33:19 PM 40.3856 -81.3681 128° Southeast 388 447 35,000  Level Cleveland Center
Tue 07:34:19 PM 40.3133 -81.2583 131° Southeast 388 447 35,000  Level Cleveland Center
Tue 07:35:19 PM 40.2408 -81.1514 132° Southeast 388 447 35,000  Level Cleveland Center
Tue 07:36:19 PM 40.1683 -81.0422 131° Southeast 393 452 35,000  Level Cleveland Center
Tue 07:37:19 PM 40.0936 -80.9306 131° Southeast 398 458 35,000  Level Cleveland Center
Tue 07:38:19 PM 40.0211 -80.8189 130° Southeast 403 464 35,000  Level Cleveland Center
Tue 07:39:19 PM 39.9442 -80.7131 133° Southeast 403 464 35,000  Level Cleveland Center
Tue 07:40:19 PM 39.8669 -80.6047 133° Southeast 403 464 35,000 -100 Level Cleveland Center
Tue 07:41:19 PM 39.7942 -80.5019 133° Southeast 393 452 34,800 -453 Descending Cleveland Center
Tue 07:42:58 PM 39.6683 -80.3364 135° Southeast 391 450 33,800 -604 Descending Washington Center
Tue 07:43:58 PM 39.5931 -80.2292 132° Southeast 398 458 33,200 -555 Descending Washington Center
Tue 07:44:57 PM 39.5139 -80.1217 134° Southeast 398 458 32,700 -545 Descending Washington Center
Tue 07:45:59 PM 39.4386 -80.0150 132° Southeast 398 458 32,100 -600 Descending Washington Center
Tue 07:46:57 PM 39.3592 -79.9108 135° Southeast 398 458 31,500 -706 Descending Washington Center
Tue 07:47:58 PM 39.2969 -79.7808 122° Southeast 403 464 30,700 -1,131 Descending Washington Center
Tue 07:48:59 PM 39.2817 -79.6192 97° East 414 476 29,200 -1,488 Descending Washington Center
Tue 07:49:59 PM 39.2683 -79.4575 96° East 431 496 27,700 -1,576 Descending Washington Center
Tue 07:50:57 PM 39.2567 -79.2986 95° East 444 511 26,100 -1,576 Descending Washington Center
Tue 07:51:57 PM 39.2403 -79.1425 98° East 444 511 24,600 -1,500 Descending Washington Center
Tue 07:52:57 PM 39.2239 -78.9917 98° East 439 505 23,100 -1,488 Descending Washington Center
Tue 07:53:58 PM 39.2114 -78.8411 96° East 429 494 21,600 -1,488 Descending Washington Center
Tue 07:54:58 PM 39.1964 -78.6983 98° East 419 482 20,100 -1,450 Descending Washington Center
Tue 07:55:58 PM 39.1811 -78.5558 98° East 407 468 18,700 -1,289 Descending Washington Center
Tue 07:56:59 PM 39.1697 -78.4267 96° East 385 443 17,500 -1,261 Descending Washington Center
Tue 07:57:57 PM 39.1494 -78.3083 102° East 352 405 16,200 -1,220 Descending Washington Center
Tue 07:58:57 PM 39.1206 -78.2003 109° East 331 381 15,100 -1,150 Descending Washington Center
Tue 07:59:57 PM 39.0939 -78.0894 107° East 326 375 13,900 -1,140 Descending Washington Center
Tue 08:00:58 PM 39.0647 -77.9789 109° East 321 369 12,800 -1,131 Descending Washington Center
Tue 08:01:59 PM 39.0358 -77.8578 107° East 321 369 11,600 -1,180 Descending Washington Center
Tue 08:03:00 PM 39.0086 -77.7528 108° East 316 364 10,400 -1,109 Descending Washington Center
Tue 08:03:58 PM 38.9814 -77.6478 108° East 305 351 9,400 -1,132 Descending Washington Center
Tue 08:04:46 PM 38.9500 -77.5500 112° Southeast 307 353 8,400 -1,148 Descending Potomac TRACON
Tue 08:05:53 PM 38.9667 -77.4500 78° East 306 352 7,200 -1,388 Descending Potomac TRACON
Tue 08:06:47 PM 38.9833 -77.3500 78° East 303 349 5,600 -1,368 Descending Potomac TRACON
Tue 08:07:47 PM 39.0000 -77.2500 78° East 286 329 4,600 -1,238 Descending Potomac TRACON
Tue 08:08:53 PM 38.9833 -77.1667 104° East 239 275 3,000 -1,095 Descending Potomac TRACON
Tue 08:09:53 PM 38.9500 -77.1000 123° Southeast 189 217 2,300 -350 Descending Potomac TRACON
Tue 08:10:53 PM 38.9333 -77.1333 237° Southwest 148 170 2,300 350 Level Potomac TRACON
Tue 08:11:53 PM 38.9000 -77.1667 218° Southwest 145 167 3,000 350 Climbing Potomac TRACON
Tue 08:12:53 PM 38.9000 -77.2167 270° West 173 199 3,000  Level Potomac TRACON
Tue 08:13:53 PM 38.9500 -77.2333 345° North 213 245 3,000  Level Potomac TRACON
Tue 08:14:53 PM 38.9833 -77.1833 49° Northeast 218 251 3,000 -350 Level Potomac TRACON
Tue 08:15:53 PM 38.9500 -77.1333 131° Southeast 162 186 2,300 -750 Descending Potomac TRACON
Tue 08:16:53 PM 38.9333 -77.1000 123° Southeast 144 166 1,500 -800 Descending Potomac TRACON

Login

Don't have an account? Register now (free) for customized features, flight alerts, and more!